createdAt,value
2023-05-16T00:01:38.220Z,15.33
2023-05-16T00:03:39.872Z,15.29
2023-05-16T00:05:41.493Z,15.26
2023-05-16T00:07:43.943Z,15.24
2023-05-16T00:09:45.435Z,15.22
2023-05-16T00:11:48.400Z,15.23
2023-05-16T00:13:49.831Z,15.26
2023-05-16T00:15:52.168Z,15.24
2023-05-16T00:17:58.041Z,15.23
2023-05-16T00:20:00.258Z,15.26
2023-05-16T00:22:01.867Z,15.25
2023-05-16T00:24:04.203Z,15.25
2023-05-16T00:26:05.689Z,15.26
2023-05-16T00:28:07.435Z,15.24
2023-05-16T00:30:09.127Z,15.21
2023-05-16T00:32:10.794Z,15.15
2023-05-16T00:34:12.410Z,15.10
2023-05-16T00:36:13.977Z,15.05
2023-05-16T00:38:15.468Z,15.06
2023-05-16T00:40:17.072Z,15.07
2023-05-16T00:42:21.675Z,15.07
2023-05-16T00:44:23.172Z,15.09
2023-05-16T00:46:24.736Z,15.05
2023-05-16T00:48:26.433Z,15.04
2023-05-16T00:50:28.139Z,14.97
2023-05-16T00:52:30.968Z,14.95
2023-05-16T00:54:32.527Z,14.91
2023-05-16T00:56:34.026Z,14.90
2023-05-16T00:58:35.522Z,14.90
2023-05-16T01:00:37.655Z,14.92
2023-05-16T01:02:39.367Z,14.96
2023-05-16T01:04:41.467Z,14.98
2023-05-16T01:06:43.005Z,14.95
2023-05-16T01:08:44.485Z,14.97
2023-05-16T01:10:48.977Z,15.02
2023-05-16T01:12:57.705Z,15.02
2023-05-16T01:14:59.160Z,15.01
2023-05-16T01:17:00.696Z,14.97
2023-05-16T01:19:08.254Z,14.93
2023-05-16T01:21:15.509Z,14.92
2023-05-16T01:23:30.827Z,14.86
2023-05-16T01:25:32.984Z,14.86
2023-05-16T01:27:35.112Z,14.86
2023-05-16T01:29:36.720Z,14.88
2023-05-16T01:31:38.201Z,14.88
2023-05-16T01:33:39.733Z,14.88
2023-05-16T01:35:44.615Z,14.88
2023-05-16T01:37:50.429Z,14.86
2023-05-16T01:39:56.890Z,14.87
2023-05-16T01:42:03.765Z,14.89
2023-05-16T01:44:07.511Z,14.71
2023-05-16T01:46:13.133Z,14.70
2023-05-16T01:48:17.486Z,14.73
2023-05-16T01:50:19.036Z,14.81
2023-05-16T01:52:26.456Z,14.85
2023-05-16T01:54:29.963Z,14.90
2023-05-16T01:56:31.891Z,14.92
2023-05-16T01:58:33.882Z,14.92
2023-05-16T02:00:35.524Z,14.92
2023-05-16T02:02:37.070Z,14.92
2023-05-16T02:04:38.584Z,14.91
2023-05-16T02:06:40.026Z,14.88
2023-05-16T02:08:41.470Z,14.91
2023-05-16T02:10:43.013Z,14.89
2023-05-16T02:12:44.467Z,14.87
2023-05-16T02:14:46.010Z,14.81
2023-05-16T02:16:48.549Z,14.79
2023-05-16T02:18:50.214Z,14.82
2023-05-16T02:20:52.048Z,14.80
2023-05-16T02:22:54.003Z,14.79
2023-05-16T02:24:56.491Z,14.74
2023-05-16T02:26:58.004Z,14.74
2023-05-16T02:28:59.609Z,14.71
2023-05-16T02:31:01.387Z,14.67
2023-05-16T02:33:03.144Z,14.54
2023-05-16T02:35:04.862Z,14.40
2023-05-16T02:37:06.477Z,14.33
2023-05-16T02:39:10.154Z,14.29
2023-05-16T02:41:11.634Z,14.32
2023-05-16T02:43:13.170Z,14.39
2023-05-16T02:45:14.640Z,14.42
2023-05-16T02:47:16.202Z,14.40
2023-05-16T02:49:17.874Z,14.39
2023-05-16T02:51:22.909Z,14.25
2023-05-16T02:53:24.319Z,14.14
2023-05-16T02:55:26.261Z,14.17
2023-05-16T02:57:27.736Z,14.20
2023-05-16T02:59:29.205Z,14.25
2023-05-16T03:01:30.947Z,14.33
2023-05-16T03:03:35.372Z,14.38
2023-05-16T03:05:37.537Z,14.42
2023-05-16T03:07:38.982Z,14.48
2023-05-16T03:09:40.545Z,14.50
2023-05-16T03:11:42.441Z,14.52
2023-05-16T03:13:43.908Z,14.55
2023-05-16T03:15:45.789Z,14.59
2023-05-16T03:17:47.373Z,14.61
2023-05-16T03:19:49.263Z,14.62
2023-05-16T03:21:50.786Z,14.63
2023-05-16T03:23:52.258Z,14.61
2023-05-16T03:25:53.736Z,14.59
2023-05-16T03:27:55.529Z,14.59
2023-05-16T03:29:57.027Z,14.59
2023-05-16T03:31:58.512Z,14.58
2023-05-16T03:33:59.968Z,14.60
2023-05-16T03:36:02.146Z,14.63
2023-05-16T03:38:03.671Z,14.66
2023-05-16T03:40:05.872Z,14.66
2023-05-16T03:42:07.754Z,14.67
2023-05-16T03:44:09.240Z,14.68
2023-05-16T03:46:10.837Z,14.71
2023-05-16T03:48:12.345Z,14.67
2023-05-16T03:50:13.914Z,14.69
2023-05-16T03:52:15.365Z,14.67
2023-05-16T03:54:16.975Z,14.68
2023-05-16T03:56:18.461Z,14.68
2023-05-16T03:58:20.013Z,14.68
2023-05-16T04:00:21.615Z,14.65
2023-05-16T04:02:23.100Z,14.59
2023-05-16T04:04:24.608Z,14.59
2023-05-16T04:06:26.164Z,14.58
2023-05-16T04:08:27.723Z,14.59
2023-05-16T04:10:29.266Z,14.59
2023-05-16T04:12:30.739Z,14.54
2023-05-16T04:14:32.261Z,14.56
2023-05-16T04:16:33.822Z,14.54
2023-05-16T04:18:35.331Z,14.54
2023-05-16T04:20:37.042Z,14.57
2023-05-16T04:22:38.474Z,14.59
2023-05-16T04:24:39.973Z,14.60
2023-05-16T04:26:41.407Z,14.61
2023-05-16T04:28:42.878Z,14.64
2023-05-16T04:30:44.345Z,14.65
2023-05-16T04:32:46.239Z,14.67
2023-05-16T04:34:48.520Z,14.68
2023-05-16T04:36:50.232Z,14.70
2023-05-16T04:38:52.540Z,14.74
2023-05-16T04:40:54.116Z,14.73
2023-05-16T04:42:55.762Z,14.73
2023-05-16T04:44:57.464Z,14.72
2023-05-16T04:46:59.189Z,14.74
2023-05-16T04:49:00.788Z,14.78
2023-05-16T04:51:02.230Z,14.77
2023-05-16T04:53:04.203Z,14.80
2023-05-16T04:55:05.998Z,14.80
2023-05-16T04:57:07.754Z,14.66
2023-05-16T04:59:09.331Z,14.65
2023-05-16T05:01:11.007Z,14.66
2023-05-16T05:03:12.579Z,14.65
2023-05-16T05:05:14.257Z,14.68
2023-05-16T05:07:15.989Z,14.71
2023-05-16T05:09:17.440Z,14.74
2023-05-16T05:11:19.277Z,14.74
2023-05-16T05:13:20.724Z,14.77
2023-05-16T05:15:22.236Z,14.79
2023-05-16T05:17:23.875Z,14.70
2023-05-16T05:19:25.537Z,14.72
2023-05-16T05:21:27.043Z,14.74
2023-05-16T05:23:28.509Z,14.76
2023-05-16T05:25:30.107Z,14.77
2023-05-16T05:27:31.707Z,14.71
2023-05-16T05:29:33.175Z,14.70
2023-05-16T05:31:35.359Z,14.65
2023-05-16T05:33:36.892Z,14.69
2023-05-16T05:35:38.358Z,14.73
2023-05-16T05:37:39.822Z,14.79
2023-05-16T05:39:41.339Z,14.84
2023-05-16T05:41:42.775Z,14.92
2023-05-16T05:43:44.200Z,14.94
2023-05-16T05:45:45.697Z,14.89
2023-05-16T05:47:47.252Z,14.83
2023-05-16T05:49:50.030Z,14.86
2023-05-16T05:51:52.335Z,14.91
2023-05-16T05:53:54.037Z,14.93
2023-05-16T05:55:55.498Z,14.92
2023-05-16T05:57:56.973Z,14.93
2023-05-16T05:59:58.553Z,14.88
2023-05-16T06:02:00.078Z,14.91
2023-05-16T06:04:02.301Z,14.95
2023-05-16T06:06:04.427Z,14.90
2023-05-16T06:08:05.955Z,14.98
2023-05-16T06:10:08.684Z,14.97
2023-05-16T06:12:10.197Z,15.05
2023-05-16T06:14:11.939Z,15.08
2023-05-16T06:16:13.726Z,15.02
2023-05-16T06:18:15.296Z,14.99
2023-05-16T06:20:16.812Z,15.04
2023-05-16T06:22:18.264Z,15.06
2023-05-16T06:24:19.757Z,15.06
2023-05-16T06:26:22.518Z,15.04
2023-05-16T06:28:24.259Z,15.02
2023-05-16T06:30:25.778Z,15.00
2023-05-16T06:32:27.262Z,15.06
2023-05-16T06:34:28.829Z,15.02
2023-05-16T06:36:31.170Z,15.01
2023-05-16T06:38:32.862Z,15.07
2023-05-16T06:40:34.373Z,15.16
2023-05-16T06:42:35.940Z,15.20
2023-05-16T06:44:37.427Z,15.23
2023-05-16T06:46:39.082Z,15.19
2023-05-16T06:48:40.812Z,15.23
2023-05-16T06:50:42.407Z,15.28
2023-05-16T06:52:45.590Z,15.36
2023-05-16T06:54:47.129Z,15.34
2023-05-16T06:56:48.773Z,15.38
2023-05-16T06:58:50.436Z,15.44
2023-05-16T07:00:52.024Z,15.48
2023-05-16T07:02:53.620Z,15.50
2023-05-16T07:04:55.403Z,15.61
2023-05-16T07:06:56.921Z,15.71
2023-05-16T07:08:58.519Z,15.67
2023-05-16T07:10:59.999Z,15.72
2023-05-16T07:13:02.368Z,15.73
2023-05-16T07:15:04.172Z,15.73
2023-05-16T07:17:05.721Z,15.81
2023-05-16T07:19:08.184Z,15.82
2023-05-16T07:21:09.801Z,15.83
2023-05-16T07:23:11.338Z,15.88
2023-05-16T07:25:14.581Z,15.85
2023-05-16T07:27:16.607Z,15.83
2023-05-16T07:29:18.444Z,15.87
2023-05-16T07:31:20.191Z,15.84
2023-05-16T07:33:21.706Z,15.81
2023-05-16T07:35:23.196Z,15.87
2023-05-16T07:37:24.862Z,15.87
2023-05-16T07:39:26.733Z,15.86
2023-05-16T07:41:29.166Z,16.01
2023-05-16T07:43:30.699Z,16.06
2023-05-16T07:45:32.220Z,16.19
2023-05-16T07:47:33.861Z,16.26
2023-05-16T07:49:35.530Z,16.33
2023-05-16T07:51:37.184Z,16.42
2023-05-16T07:53:38.671Z,16.46
2023-05-16T07:55:40.462Z,16.52
2023-05-16T07:57:43.711Z,16.55
2023-05-16T07:59:45.432Z,16.54
2023-05-16T08:01:49.822Z,16.49
2023-05-16T08:03:52.592Z,16.54
2023-05-16T08:05:54.265Z,16.52
2023-05-16T08:07:55.812Z,16.53
2023-05-16T08:09:57.348Z,16.46
2023-05-16T08:12:03.440Z,16.47
2023-05-16T08:14:05.451Z,16.51
2023-05-16T08:16:07.555Z,16.49
2023-05-16T08:18:13.146Z,16.45
2023-05-16T08:20:14.764Z,16.50
2023-05-16T08:22:16.347Z,16.58
2023-05-16T08:24:18.385Z,16.71
2023-05-16T08:26:20.007Z,16.76
2023-05-16T08:28:21.887Z,16.83
2023-05-16T08:30:23.794Z,16.93
2023-05-16T08:32:25.701Z,17.01
2023-05-16T08:34:27.215Z,17.00
2023-05-16T08:36:28.807Z,17.02
2023-05-16T08:38:30.385Z,17.02
2023-05-16T08:40:32.183Z,17.04
2023-05-16T08:42:34.257Z,16.92
2023-05-16T08:44:35.855Z,17.01
2023-05-16T08:46:37.442Z,17.06
2023-05-16T08:48:39.016Z,17.17
2023-05-16T08:50:42.818Z,17.28
2023-05-16T08:52:44.628Z,17.34
2023-05-16T08:54:50.311Z,17.54
2023-05-16T08:56:57.057Z,17.75
2023-05-16T08:58:58.685Z,17.94
2023-05-16T09:01:00.262Z,18.06
2023-05-16T09:03:01.930Z,18.24
2023-05-16T09:05:03.587Z,18.32
2023-05-16T09:07:06.046Z,18.14
2023-05-16T09:09:09.493Z,18.06
2023-05-16T09:11:11.107Z,18.04
2023-05-16T09:13:12.709Z,18.20
2023-05-16T09:15:14.223Z,18.19
2023-05-16T09:19:18.373Z,18.10
2023-05-16T09:21:19.957Z,18.12
2023-05-16T09:23:24.256Z,18.05
2023-05-16T09:27:31.396Z,17.96
2023-05-16T09:29:33.787Z,18.11
2023-05-16T09:31:39.494Z,18.19
2023-05-16T09:33:41.869Z,18.28
2023-05-16T09:35:45.474Z,18.37
2023-05-16T09:37:48.111Z,18.44
2023-05-16T09:39:51.142Z,18.34
2023-05-16T09:41:52.648Z,18.47
2023-05-16T09:43:54.123Z,18.48
2023-05-16T09:45:56.763Z,18.52
2023-05-16T09:48:05.591Z,18.51
2023-05-16T09:50:07.755Z,18.60
2023-05-16T09:52:09.472Z,18.65
2023-05-16T09:54:11.117Z,18.69
2023-05-16T09:56:13.552Z,18.72
2023-05-16T09:58:17.153Z,18.74
2023-05-16T10:00:19.074Z,18.69
2023-05-16T10:02:20.772Z,18.68
2023-05-16T10:04:22.421Z,18.76
2023-05-16T10:06:25.230Z,18.77
2023-05-16T10:08:26.730Z,18.81
2023-05-16T10:10:28.624Z,18.88
2023-05-16T10:12:32.129Z,18.92
2023-05-16T10:14:34.571Z,18.92
2023-05-16T10:16:36.160Z,18.94
2023-05-16T10:18:38.678Z,18.98
2023-05-16T10:20:41.704Z,18.98
2023-05-16T10:22:43.702Z,19.03
2023-05-16T10:25:03.586Z,19.07
2023-05-16T10:27:05.326Z,19.02
2023-05-16T10:29:07.539Z,18.97
2023-05-16T10:31:10.586Z,18.80
2023-05-16T10:33:12.860Z,18.69
2023-05-16T10:35:14.355Z,18.68
2023-05-16T10:37:15.876Z,18.67
2023-05-16T10:39:17.774Z,18.69
2023-05-16T10:41:19.302Z,18.70
2023-05-16T10:43:24.969Z,18.77
2023-05-16T10:45:27.045Z,18.86
2023-05-16T10:47:29.530Z,18.94
2023-05-16T10:49:31.472Z,18.94
2023-05-16T10:51:33.931Z,18.91
2023-05-16T10:53:35.975Z,18.98
2023-05-16T10:55:38.974Z,19.00
2023-05-16T10:57:40.503Z,19.02
2023-05-16T10:59:43.182Z,19.02
2023-05-16T11:01:44.727Z,18.99
2023-05-16T11:03:58.455Z,18.98
2023-05-16T11:06:00.195Z,18.96
2023-05-16T11:08:07.620Z,18.98
2023-05-16T11:10:10.006Z,18.85
2023-05-16T11:12:11.544Z,18.85
2023-05-16T11:14:23.311Z,18.87
2023-05-16T11:16:28.402Z,18.87
2023-05-16T11:18:32.113Z,18.85
2023-05-16T11:20:38.022Z,18.86
2023-05-16T11:22:42.391Z,18.80
2023-05-16T11:24:53.927Z,18.76
2023-05-16T11:26:55.406Z,18.77
2023-05-16T11:28:57.633Z,18.79
2023-05-16T11:31:00.141Z,18.79
2023-05-16T11:33:02.037Z,18.82
2023-05-16T11:35:04.273Z,18.80
2023-05-16T11:37:06.586Z,18.75
2023-05-16T11:39:09.646Z,18.59
2023-05-16T11:41:11.694Z,18.61
2023-05-16T11:43:17.591Z,18.60
2023-05-16T11:45:24.605Z,18.65
2023-05-16T11:47:27.602Z,18.71
2023-05-16T11:49:29.296Z,18.78
2023-05-16T11:51:31.221Z,18.82
2023-05-16T11:53:33.771Z,18.87
2023-05-16T11:57:42.092Z,19.01
2023-05-16T11:59:43.654Z,19.15
2023-05-16T12:01:45.264Z,19.28
2023-05-16T12:03:54.254Z,19.34
2023-05-16T12:05:57.940Z,19.37
2023-05-16T12:07:59.924Z,19.47
2023-05-16T12:10:05.099Z,19.39
2023-05-16T12:12:07.403Z,19.42
2023-05-16T12:14:12.738Z,19.54
2023-05-16T12:16:14.299Z,19.69
2023-05-16T12:18:16.010Z,19.79
2023-05-16T12:20:17.622Z,19.85
2023-05-16T12:22:19.817Z,19.93
2023-05-16T12:24:22.208Z,19.99
2023-05-16T12:26:31.163Z,20.07
2023-05-16T12:28:36.341Z,19.96
2023-05-16T12:30:42.239Z,19.95
2023-05-16T12:32:44.000Z,19.83
2023-05-16T12:34:52.251Z,19.70
2023-05-16T12:36:54.532Z,19.68
2023-05-16T12:38:56.090Z,19.63
2023-05-16T12:40:58.193Z,19.53
2023-05-16T12:42:59.818Z,19.51
2023-05-16T12:45:01.399Z,19.34
2023-05-16T12:47:02.938Z,19.21
2023-05-16T12:49:07.139Z,19.21
2023-05-16T12:51:15.356Z,19.21
2023-05-16T12:53:17.381Z,19.14
2023-05-16T12:55:19.266Z,19.18
2023-05-16T12:57:20.884Z,19.26
2023-05-16T12:59:22.412Z,19.29
2023-05-16T13:01:23.958Z,19.32
2023-05-16T13:03:26.137Z,19.31
2023-05-16T13:05:27.717Z,19.23
2023-05-16T13:07:29.231Z,19.17
2023-05-16T13:09:33.026Z,19.08
2023-05-16T13:11:34.752Z,19.08
2023-05-16T13:13:37.255Z,19.00
2023-05-16T13:15:38.882Z,19.02
2023-05-16T13:17:40.950Z,18.93
2023-05-16T13:19:42.578Z,18.91
2023-05-16T13:21:44.050Z,18.83
2023-05-16T13:23:46.232Z,18.77
2023-05-16T13:25:49.332Z,18.74
2023-05-16T13:27:51.197Z,18.74
2023-05-16T13:29:52.742Z,18.70
2023-05-16T13:31:54.281Z,18.65
2023-05-16T13:33:55.834Z,18.62
2023-05-16T13:35:57.481Z,18.62
2023-05-16T13:37:59.183Z,18.62
2023-05-16T13:40:00.743Z,18.37
2023-05-16T13:42:03.329Z,18.39
2023-05-16T13:44:04.956Z,18.42
2023-05-16T13:46:06.494Z,18.42
2023-05-16T13:48:08.151Z,18.42
2023-05-16T13:50:10.547Z,18.41
2023-05-16T13:52:12.229Z,18.49
2023-05-16T13:54:13.751Z,18.50
2023-05-16T13:56:15.661Z,18.51
2023-05-16T13:58:17.172Z,18.51
2023-05-16T14:00:39.761Z,18.47
2023-05-16T14:02:41.122Z,18.47
2023-05-16T14:04:42.706Z,18.46
2023-05-16T14:06:44.202Z,18.44
2023-05-16T14:08:46.158Z,18.44
2023-05-16T14:10:47.642Z,18.37
2023-05-16T14:12:49.244Z,18.23
2023-05-16T14:14:50.799Z,18.16
2023-05-16T14:16:52.852Z,17.97
2023-05-16T14:18:54.643Z,17.83
2023-05-16T14:20:56.687Z,17.71
2023-05-16T14:22:58.178Z,17.66
2023-05-16T14:25:00.446Z,17.39
2023-05-16T14:27:01.994Z,17.39
2023-05-16T14:29:03.540Z,17.51
2023-05-16T14:31:05.074Z,17.61
2023-05-16T14:33:06.780Z,17.63
2023-05-16T14:35:09.618Z,17.64
2023-05-16T14:37:11.475Z,17.63
2023-05-16T14:39:13.284Z,17.56
2023-05-16T14:41:14.927Z,17.55
2023-05-16T14:43:16.760Z,17.54
2023-05-16T14:45:18.304Z,17.53
2023-05-16T14:47:19.799Z,17.62
2023-05-16T14:49:21.368Z,17.72
2023-05-16T14:51:22.856Z,17.81
2023-05-16T14:53:24.417Z,17.84
2023-05-16T14:55:26.206Z,17.89
2023-05-16T14:57:27.803Z,17.94
2023-05-16T14:59:29.352Z,17.96
2023-05-16T15:01:31.034Z,17.90
2023-05-16T15:03:43.271Z,17.83
2023-05-16T15:05:52.861Z,17.85
2023-05-16T15:07:54.339Z,17.83
2023-05-16T15:09:56.012Z,17.85
2023-05-16T15:11:57.576Z,17.86
2023-05-16T15:13:59.391Z,17.76
2023-05-16T15:16:00.954Z,17.80
2023-05-16T15:18:02.561Z,17.80
2023-05-16T15:20:05.478Z,17.70
2023-05-16T15:22:08.236Z,17.59
2023-05-16T15:24:09.890Z,17.57
2023-05-16T15:26:11.628Z,17.58
2023-05-16T15:28:13.197Z,17.68
2023-05-16T15:30:14.946Z,17.68
2023-05-16T15:32:17.129Z,17.76
2023-05-16T15:34:19.109Z,17.80
2023-05-16T15:36:20.713Z,17.85
2023-05-16T15:38:22.215Z,17.88
2023-05-16T15:40:26.954Z,17.89
2023-05-16T15:42:28.924Z,17.90
2023-05-16T15:44:30.472Z,17.91
2023-05-16T15:46:33.178Z,17.88
2023-05-16T15:48:35.062Z,17.90
2023-05-16T15:50:36.595Z,17.91
2023-05-16T15:52:38.207Z,17.91
2023-05-16T15:54:40.146Z,17.91
2023-05-16T15:56:41.649Z,17.91
2023-05-16T15:58:46.698Z,17.92
2023-05-16T16:00:48.248Z,17.94
2023-05-16T16:02:49.871Z,17.95
2023-05-16T16:04:51.919Z,17.96
2023-05-16T16:06:53.433Z,17.95
2023-05-16T16:08:54.963Z,17.85
2023-05-16T16:10:56.640Z,17.80
2023-05-16T16:13:01.602Z,17.74
2023-05-16T16:15:06.505Z,17.70
2023-05-16T16:17:08.077Z,17.61
2023-05-16T16:19:09.658Z,17.55
2023-05-16T16:21:11.406Z,17.48
2023-05-16T16:23:13.099Z,17.37
2023-05-16T16:25:14.745Z,17.29
2023-05-16T16:27:16.621Z,17.27
2023-05-16T16:29:18.127Z,17.30
2023-05-16T16:31:20.571Z,17.30
2023-05-16T16:33:22.137Z,17.27
2023-05-16T16:35:25.989Z,17.24
2023-05-16T16:37:27.774Z,17.26
2023-05-16T16:39:32.163Z,17.26
2023-05-16T16:41:34.592Z,17.25
2023-05-16T16:43:37.308Z,17.23
2023-05-16T16:45:38.814Z,17.25
2023-05-16T16:47:40.684Z,17.27
2023-05-16T16:49:42.229Z,17.25
2023-05-16T16:51:43.835Z,17.24
2023-05-16T16:53:45.313Z,17.20
2023-05-16T16:55:46.809Z,17.19
2023-05-16T16:57:48.342Z,17.19
2023-05-16T16:59:49.981Z,17.20
2023-05-16T17:01:51.511Z,17.22
2023-05-16T17:03:53.113Z,17.24
2023-05-16T17:05:54.662Z,17.27
2023-05-16T17:07:56.413Z,17.24
2023-05-16T17:09:57.998Z,17.22
2023-05-16T17:12:04.646Z,17.19
2023-05-16T17:14:07.257Z,17.11
2023-05-16T17:16:09.852Z,16.91
2023-05-16T17:18:11.495Z,16.82
2023-05-16T17:20:16.104Z,16.79
2023-05-16T17:22:17.796Z,16.75
2023-05-16T17:24:19.670Z,16.73
2023-05-16T17:26:22.103Z,16.64
2023-05-16T17:28:23.640Z,16.50
2023-05-16T17:30:25.230Z,16.43
2023-05-16T17:32:26.800Z,16.35
2023-05-16T17:34:28.355Z,16.37
2023-05-16T17:36:29.883Z,16.40
2023-05-16T17:38:31.805Z,16.47
2023-05-16T17:40:33.501Z,16.54
2023-05-16T17:42:35.050Z,16.64
2023-05-16T17:44:36.701Z,16.69
2023-05-16T17:46:42.588Z,16.72
2023-05-16T17:48:44.114Z,16.72
2023-05-16T17:50:45.996Z,16.70
2023-05-16T17:52:47.474Z,16.70
2023-05-16T17:54:49.337Z,16.62
2023-05-16T17:56:51.091Z,16.58
2023-05-16T17:58:53.404Z,16.61
2023-05-16T18:00:54.959Z,16.64
2023-05-16T18:02:56.697Z,16.65
2023-05-16T18:04:58.487Z,16.67
2023-05-16T18:07:00.283Z,16.69
2023-05-16T18:09:05.217Z,16.67
2023-05-16T18:11:06.749Z,16.68
2023-05-16T18:13:08.291Z,16.65
2023-05-16T18:15:10.739Z,16.63
2023-05-16T18:17:13.418Z,16.56
2023-05-16T18:19:15.237Z,16.57
2023-05-16T18:21:16.950Z,16.54
2023-05-16T18:23:18.432Z,16.58
2023-05-16T18:25:20.017Z,16.61
2023-05-16T18:27:21.640Z,16.66
2023-05-16T18:29:26.233Z,16.64
2023-05-16T18:31:27.838Z,16.57
2023-05-16T18:33:29.593Z,16.54
2023-05-16T18:35:31.180Z,16.51
2023-05-16T18:37:32.870Z,16.47
2023-05-16T18:39:34.352Z,16.36
2023-05-16T18:41:35.845Z,16.34
2023-05-16T18:43:37.416Z,16.38
2023-05-16T18:45:38.890Z,16.37
2023-05-16T18:47:40.645Z,16.42
2023-05-16T18:49:43.413Z,16.41
2023-05-16T18:51:44.969Z,16.35
2023-05-16T18:53:46.519Z,16.36
2023-05-16T18:55:48.952Z,16.36
2023-05-16T18:57:50.567Z,16.40
2023-05-16T18:59:53.673Z,16.42
2023-05-16T19:01:55.515Z,16.34
2023-05-16T19:03:57.120Z,16.29
2023-05-16T19:05:59.107Z,16.30
2023-05-16T19:08:00.665Z,16.25
2023-05-16T19:10:03.792Z,16.23
2023-05-16T19:12:05.822Z,16.26
2023-05-16T19:14:08.312Z,16.28
2023-05-16T19:16:09.846Z,16.23
2023-05-16T19:18:11.534Z,16.22
2023-05-16T19:20:13.107Z,16.25
2023-05-16T19:22:14.644Z,16.31
2023-05-16T19:24:16.238Z,16.33
2023-05-16T19:26:17.863Z,16.35
2023-05-16T19:28:19.325Z,16.37
2023-05-16T19:30:21.010Z,16.38
2023-05-16T19:32:22.552Z,16.42
2023-05-16T19:34:26.679Z,16.42
2023-05-16T19:36:28.307Z,16.40
2023-05-16T19:38:29.874Z,16.38
2023-05-16T19:40:32.817Z,16.41
2023-05-16T19:42:34.281Z,16.40
2023-05-16T19:44:35.817Z,16.40
2023-05-16T19:46:38.370Z,16.32
2023-05-16T19:48:39.953Z,16.32
2023-05-16T19:50:41.670Z,16.36
2023-05-16T19:52:43.180Z,16.41
2023-05-16T19:54:44.694Z,16.33
2023-05-16T19:56:46.292Z,16.32
2023-05-16T19:58:48.911Z,16.28
2023-05-16T20:00:50.978Z,16.25
2023-05-16T20:02:52.654Z,16.29
2023-05-16T20:04:54.395Z,16.35
2023-05-16T20:06:55.959Z,16.40
2023-05-16T20:08:57.524Z,16.45
2023-05-16T20:10:59.122Z,16.49
2023-05-16T20:13:00.876Z,16.51
2023-05-16T20:15:02.617Z,16.52
2023-05-16T20:17:04.185Z,16.54
2023-05-16T20:19:07.039Z,16.54
2023-05-16T20:21:08.589Z,16.53
2023-05-16T20:23:10.131Z,16.50
2023-05-16T20:25:12.157Z,16.48
2023-05-16T20:27:13.637Z,16.43
2023-05-16T20:29:15.179Z,16.45
2023-05-16T20:31:16.637Z,16.43
2023-05-16T20:33:18.198Z,16.43
2023-05-16T20:35:19.846Z,16.42
2023-05-16T20:37:26.509Z,16.41
2023-05-16T20:39:29.013Z,16.37
2023-05-16T20:41:30.522Z,16.30
2023-05-16T20:43:32.007Z,16.26
2023-05-16T20:45:33.569Z,16.25
2023-05-16T20:47:35.117Z,16.21
2023-05-16T20:49:37.879Z,16.11
2023-05-16T20:51:39.455Z,16.06
2023-05-16T20:53:41.017Z,15.93
2023-05-16T20:55:42.536Z,15.94
2023-05-16T20:57:44.186Z,16.01
2023-05-16T20:59:45.754Z,16.07
2023-05-16T21:01:47.223Z,16.06
2023-05-16T21:03:48.675Z,16.11
2023-05-16T21:05:50.387Z,16.13
2023-05-16T21:07:51.939Z,16.14
2023-05-16T21:09:53.445Z,16.12
2023-05-16T21:11:55.014Z,16.06
2023-05-16T21:13:56.528Z,16.05
2023-05-16T21:15:58.018Z,16.12
2023-05-16T21:17:59.673Z,16.19
2023-05-16T21:20:01.290Z,16.23
2023-05-16T21:22:04.078Z,16.25
2023-05-16T21:24:05.954Z,16.28
2023-05-16T21:26:07.591Z,16.32
2023-05-16T21:28:09.348Z,16.29
2023-05-16T21:30:11.101Z,16.15
2023-05-16T21:32:16.192Z,16.00
2023-05-16T21:34:17.851Z,15.94
2023-05-16T21:36:19.999Z,15.87
2023-05-16T21:38:21.537Z,15.82
2023-05-16T21:40:25.673Z,15.76
2023-05-16T21:42:27.370Z,15.68
2023-05-16T21:44:28.961Z,15.62
2023-05-16T21:46:30.605Z,15.64
2023-05-16T21:48:32.402Z,15.70
2023-05-16T21:50:34.151Z,15.80
2023-05-16T21:52:35.703Z,15.85
2023-05-16T21:54:37.546Z,15.90
2023-05-16T21:56:39.095Z,15.95
2023-05-16T21:58:42.428Z,16.00
2023-05-16T22:00:43.935Z,16.03
2023-05-16T22:02:45.636Z,16.07
2023-05-16T22:04:47.228Z,16.12
2023-05-16T22:06:48.752Z,16.13
2023-05-16T22:08:50.352Z,16.15
2023-05-16T22:10:52.649Z,16.17
2023-05-16T22:12:54.244Z,16.18
2023-05-16T22:14:56.028Z,16.19
2023-05-16T22:16:57.522Z,16.19
2023-05-16T22:18:59.069Z,16.20
2023-05-16T22:21:01.111Z,16.18
2023-05-16T22:23:02.625Z,16.20
2023-05-16T22:25:05.188Z,16.21
2023-05-16T22:27:06.766Z,16.22
2023-05-16T22:29:08.287Z,16.22
2023-05-16T22:31:09.766Z,16.21
2023-05-16T22:33:11.405Z,16.17
2023-05-16T22:35:13.356Z,15.82
2023-05-16T22:37:15.009Z,15.49
2023-05-16T22:39:16.552Z,15.10
2023-05-16T22:41:18.087Z,14.98
2023-05-16T22:43:19.559Z,14.96
2023-05-16T22:45:21.018Z,15.01
2023-05-16T22:47:22.547Z,15.14
2023-05-16T22:49:24.106Z,15.26
2023-05-16T22:51:25.604Z,15.38
2023-05-16T22:53:27.109Z,15.46
2023-05-16T22:55:28.869Z,15.53
2023-05-16T22:57:30.666Z,15.60
2023-05-16T22:59:32.200Z,15.61
2023-05-16T23:01:33.905Z,15.66
2023-05-16T23:03:35.538Z,15.66
2023-05-16T23:05:37.080Z,15.67
2023-05-16T23:07:38.569Z,15.72
2023-05-16T23:09:40.061Z,15.75
2023-05-16T23:11:41.578Z,15.76
2023-05-16T23:13:43.073Z,15.77
2023-05-16T23:15:44.607Z,15.80
2023-05-16T23:17:46.177Z,15.73
2023-05-16T23:19:47.757Z,15.70
2023-05-16T23:21:49.326Z,15.68
2023-05-16T23:23:50.843Z,15.55
2023-05-16T23:25:52.394Z,15.48
2023-05-16T23:27:57.715Z,15.41
2023-05-16T23:30:01.850Z,15.44
2023-05-16T23:32:03.437Z,15.47
2023-05-16T23:34:05.234Z,15.49
2023-05-16T23:36:07.072Z,15.52
2023-05-16T23:38:08.576Z,15.56
2023-05-16T23:40:10.467Z,15.57
2023-05-16T23:42:12.062Z,15.60
2023-05-16T23:44:13.577Z,15.62
2023-05-16T23:46:15.146Z,15.65
2023-05-16T23:48:16.881Z,15.67
2023-05-16T23:50:18.515Z,15.68
2023-05-16T23:52:20.112Z,15.69
2023-05-16T23:54:21.636Z,15.69
2023-05-16T23:56:23.134Z,15.67
2023-05-16T23:58:24.738Z,15.68
